Time;durP1;ratioP1;P1;durP2;ratioP2;P2;SDS_P1;SDS_P2;PMS_P1;PMS_P2;Temp;Humidity;BMP_temperature;BMP_pressure;BME280_temperature;BME280_humidity;BME280_pressure;Samples;Min_cycle;Max_cycle;Signal;HPM_P1;HPM_P2
2023/02/01 00:01:38;;;;;;;3.78;1.80;;;18.10;51.30;;;;;;5112954;28;20253;-59
2023/02/01 00:04:03;;;;;;;3.65;2.00;;;18.10;51.30;;;;;;5114797;28;20638;-59
2023/02/01 00:06:29;;;;;;;3.92;2.03;;;18.00;51.30;;;;;;5116195;28;20603;-60
2023/02/01 00:08:55;;;;;;;4.45;1.90;;;18.00;51.40;;;;;;5117025;28;20169;-59
2023/02/01 00:11:21;;;;;;;5.18;2.05;;;18.00;51.20;;;;;;5116632;28;20201;-59
2023/02/01 00:13:46;;;;;;;6.85;2.72;;;18.00;51.20;;;;;;5116331;28;20213;-59
2023/02/01 00:16:17;;;;;;;3.63;2.03;;;18.00;51.20;;;;;;5117242;28;20201;-59
2023/02/01 00:18:43;;;;;;;4.55;2.10;;;17.90;51.20;;;;;;5116094;28;20237;-59
2023/02/01 00:21:12;;;;;;;4.53;2.00;;;17.90;51.20;;;;;;5117002;28;20574;-59
2023/02/01 00:23:38;;;;;;;5.00;1.98;;;17.90;51.20;;;;;;5116382;28;20173;-59
2023/02/01 00:26:06;;;;;;;3.47;2.15;;;17.90;51.20;;;;;;5115975;28;20206;-58
2023/02/01 00:28:33;;;;;;;3.28;1.90;;;17.80;51.30;;;;;;5116517;28;20296;-59
2023/02/01 00:30:59;;;;;;;4.88;2.20;;;17.80;51.30;;;;;;5116743;28;20256;-59
2023/02/01 00:33:24;;;;;;;4.97;2.10;;;17.80;51.20;;;;;;5115481;28;20579;-59
2023/02/01 00:35:50;;;;;;;3.08;1.55;;;17.80;51.20;;;;;;5116488;28;20172;-59
2023/02/01 00:38:16;;;;;;;4.55;2.38;;;17.80;51.20;;;;;;5116274;28;20180;-59
2023/02/01 00:40:41;;;;;;;2.95;2.00;;;17.80;51.20;;;;;;5115673;28;20268;-59
2023/02/01 00:43:07;;;;;;;3.30;2.35;;;17.80;51.20;;;;;;5116527;28;20263;-59
2023/02/01 00:45:32;;;;;;;5.38;2.25;;;17.80;51.30;;;;;;5116274;28;20207;-59
2023/02/01 00:47:58;;;;;;;6.05;2.40;;;17.80;51.30;;;;;;5115513;28;20204;-59
2023/02/01 00:50:23;;;;;;;3.97;2.10;;;17.70;51.10;;;;;;5116074;28;20180;-59
2023/02/01 00:52:49;;;;;;;4.35;2.42;;;17.70;51.10;;;;;;5116166;28;20205;-59
2023/02/01 00:55:14;;;;;;;4.30;2.35;;;17.70;51.10;;;;;;5115699;28;20169;-59
2023/02/01 00:57:40;;;;;;;4.32;2.00;;;17.70;51.20;;;;;;5116043;28;20169;-59
2023/02/01 01:00:06;;;;;;;4.03;2.10;;;17.70;51.20;;;;;;5116254;28;20169;-59
2023/02/01 01:02:31;;;;;;;5.55;2.35;;;17.70;51.30;;;;;;5114895;28;20173;-60
2023/02/01 01:04:57;;;;;;;4.75;2.00;;;17.70;51.30;;;;;;5116103;28;20528;-59
2023/02/01 01:07:22;;;;;;;4.40;1.60;;;17.70;51.30;;;;;;5115659;28;20627;-59
2023/02/01 01:09:48;;;;;;;3.97;2.08;;;17.60;51.20;;;;;;5115176;28;20697;-59
2023/02/01 01:12:13;;;;;;;4.78;2.20;;;17.60;51.30;;;;;;5115730;28;20197;-59
2023/02/01 01:14:39;;;;;;;5.22;1.90;;;17.60;51.30;;;;;;5115263;28;20185;-59
2023/02/01 01:17:04;;;;;;;5.55;2.00;;;17.60;51.30;;;;;;5114495;28;20173;-59
2023/02/01 01:19:30;;;;;;;3.67;1.77;;;17.60;51.30;;;;;;5115441;28;20225;-59
2023/02/01 01:21:55;;;;;;;4.55;2.08;;;17.60;51.20;;;;;;5114906;28;20222;-59
2023/02/01 01:24:21;;;;;;;6.38;2.00;;;17.60;51.20;;;;;;5115183;28;20264;-59
2023/02/01 01:26:46;;;;;;;6.18;2.17;;;17.50;51.10;;;;;;5115822;28;20245;-59
2023/02/01 01:29:12;;;;;;;3.75;1.63;;;17.50;51.00;;;;;;5114705;28;20219;-59
2023/02/01 01:31:38;;;;;;;4.85;2.03;;;17.50;51.20;;;;;;5115240;28;20188;-59
2023/02/01 01:34:03;;;;;;;5.00;2.08;;;17.50;51.10;;;;;;5115394;28;20299;-59
2023/02/01 01:36:29;;;;;;;4.63;2.05;;;17.50;51.20;;;;;;5114489;28;20580;-59
2023/02/01 01:38:54;;;;;;;4.38;2.00;;;17.50;51.20;;;;;;5115321;28;20700;-59
2023/02/01 01:41:22;;;;;;;3.10;1.60;;;17.50;51.20;;;;;;5115206;28;20260;-59
2023/02/01 01:43:49;;;;;;;5.72;2.40;;;17.50;51.20;;;;;;5114663;28;20177;-59
2023/02/01 01:46:17;;;;;;;3.85;2.00;;;17.50;51.10;;;;;;5115042;28;20573;-59
2023/02/01 01:48:42;;;;;;;3.58;2.00;;;17.50;51.10;;;;;;5115078;28;20197;-59
2023/02/01 01:51:10;;;;;;;5.03;1.90;;;17.40;51.10;;;;;;5096320;28;20201;-59
2023/02/01 01:53:45;;;;;;;4.32;2.20;;;17.40;51.00;;;;;;5114839;28;20208;-59
2023/02/01 01:56:11;;;;;;;4.32;2.20;;;17.40;51.00;;;;;;5097080;28;20171;-59
2023/02/01 01:58:36;;;;;;;3.55;1.88;;;17.40;51.60;;;;;;5114130;28;20181;-59
2023/02/01 02:01:02;;;;;;;4.32;1.85;;;17.40;51.00;;;;;;5115157;28;20173;-59
2023/02/01 02:03:34;;;;;;;4.70;2.30;;;17.40;51.00;;;;;;5114552;28;20176;-59
2023/02/01 02:06:00;;;;;;;3.25;1.90;;;17.40;51.00;;;;;;5096127;28;20276;-59
2023/02/01 02:08:26;;;;;;;5.18;1.92;;;17.30;51.00;;;;;;5114742;28;20173;-59
2023/02/01 02:11:00;;;;;;;4.15;1.88;;;17.40;51.00;;;;;;5096681;28;20177;-59
2023/02/01 02:13:48;;;;;;;5.00;2.30;;;17.30;50.90;;;;;;5113657;28;20222;-59
2023/02/01 02:16:16;;;;;;;4.22;1.75;;;17.30;51.00;;;;;;5114801;28;20267;-59
2023/02/01 02:19:03;;;;;;;3.53;1.52;;;17.30;51.10;;;;;;5113757;28;20225;-60
2023/02/01 02:21:50;;;;;;;3.80;1.80;;;17.30;51.10;;;;;;5114351;28;20184;-59
2023/02/01 02:24:39;;;;;;;4.93;2.25;;;17.30;51.00;;;;;;5081347;28;20661;-59
2023/02/01 02:27:22;;;;;;;2.97;1.85;;;17.30;51.00;;;;;;5079381;28;20177;-58
2023/02/01 02:30:07;;;;;;;4.70;2.20;;;17.30;51.10;;;;;;5114574;28;20169;-59
2023/02/01 02:33:09;;;;;;;3.83;1.95;;;17.30;51.00;;;;;;5113307;28;20208;-59
2023/02/01 02:36:08;;;;;;;5.47;1.88;;;17.20;51.00;;;;;;5114106;28;20173;-59
2023/02/01 02:38:58;;;;;;;5.50;1.90;;;17.20;50.90;;;;;;5098515;28;20237;-59
2023/02/01 02:47:25;;;;;;;3.78;1.77;;;17.20;50.90;;;;;;5098159;28;20176;-59
2023/02/01 02:54:45;;;;;;;4.50;2.08;;;17.20;50.90;;;;;;5098222;28;20180;-59
2023/02/01 02:55:25;;;;;;;5.22;2.17;;;17.10;50.90;;;;;;5097608;28;20274;-59
2023/02/01 03:06:03;;;;;;;6.10;2.05;;;17.10;50.90;;;;;;5114053;28;20208;-59
2023/02/01 03:08:30;;;;;;;3.38;1.98;;;17.10;50.90;;;;;;5112715;28;20185;-59
2023/02/01 03:11:08;;;;;;;3.53;1.80;;;17.10;50.90;;;;;;5113946;28;20302;-59
2023/02/01 03:13:50;;;;;;;3.72;1.73;;;17.10;50.90;;;;;;5113564;28;20217;-59
2023/02/01 03:16:31;;;;;;;3.75;2.00;;;17.10;50.90;;;;;;5096881;28;20201;-59
2023/02/01 03:19:08;;;;;;;5.03;1.95;;;17.10;50.80;;;;;;5095321;28;20256;-59
2023/02/01 03:21:45;;;;;;;4.05;1.80;;;17.00;50.80;;;;;;5079314;28;20176;-59
2023/02/01 03:24:14;;;;;;;3.45;1.83;;;17.00;50.90;;;;;;5113536;28;20180;-59
2023/02/01 03:26:42;;;;;;;4.43;1.90;;;17.00;50.80;;;;;;5095042;28;20169;-59
2023/02/01 03:29:13;;;;;;;4.65;2.25;;;17.00;50.80;;;;;;5077765;28;20183;-58
2023/02/01 03:31:39;;;;;;;3.70;1.30;;;17.00;50.80;;;;;;5094907;28;20555;-59
2023/02/01 03:34:04;;;;;;;4.40;2.03;;;17.00;51.50;;;;;;5095103;28;20215;-59
2023/02/01 03:36:31;;;;;;;4.18;2.00;;;17.00;50.80;;;;;;5077274;28;20184;-59
2023/02/01 03:39:24;;;;;;;5.10;1.88;;;17.00;50.80;;;;;;5081662;28;20173;-59
2023/02/01 03:41:53;;;;;;;6.40;2.40;;;17.00;50.80;;;;;;5087440;28;20645;-59
2023/02/01 03:44:34;;;;;;;5.13;1.98;;;17.00;50.80;;;;;;5101416;28;20257;-59
2023/02/01 03:47:13;;;;;;;4.07;1.88;;;17.00;51.40;;;;;;5102098;28;20175;-59
2023/02/01 03:49:42;;;;;;;4.03;1.60;;;17.00;50.80;;;;;;5100854;28;20173;-59
2023/02/01 03:52:36;;;;;;;2.88;1.65;;;16.90;50.80;;;;;;5085023;28;20578;-58
2023/02/01 03:55:01;;;;;;;4.38;1.92;;;16.90;50.80;;;;;;5102655;28;20185;-59
2023/02/01 03:57:30;;;;;;;4.32;2.08;;;16.90;50.70;;;;;;5100919;28;20177;-59
2023/02/01 04:00:07;;;;;;;5.38;2.03;;;16.90;50.80;;;;;;5085162;28;20204;-59
2023/02/01 04:02:33;;;;;;;4.78;1.73;;;16.90;50.70;;;;;;5119636;28;20176;-59
2023/02/01 04:04:58;;;;;;;4.05;1.90;;;16.90;50.80;;;;;;5119288;28;20177;-59
2023/02/01 04:07:24;;;;;;;5.78;2.15;;;16.90;50.80;;;;;;5119705;28;20169;-59
2023/02/01 04:09:49;;;;;;;4.88;2.05;;;16.90;50.80;;;;;;5119985;28;20177;-59
2023/02/01 04:12:15;;;;;;;4.05;1.50;;;16.90;50.80;;;;;;5119157;28;20169;-59
2023/02/01 04:14:40;;;;;;;4.57;1.70;;;16.90;50.80;;;;;;5119558;28;20173;-59
2023/02/01 04:17:06;;;;;;;4.10;1.85;;;16.80;50.80;;;;;;5119775;28;20287;-59
2023/02/01 04:19:31;;;;;;;3.78;2.30;;;16.80;50.80;;;;;;5118510;28;20300;-59
2023/02/01 04:21:57;;;;;;;5.60;2.25;;;16.80;50.70;;;;;;5119889;28;20252;-59
2023/02/01 04:24:22;;;;;;;4.40;1.92;;;16.80;50.80;;;;;;5119535;28;20535;-59
2023/02/01 04:26:48;;;;;;;4.80;2.22;;;16.80;50.80;;;;;;5118957;28;20604;-58
2023/02/01 04:29:13;;;;;;;2.50;1.90;;;16.80;50.70;;;;;;5119793;28;20251;-59
2023/02/01 04:31:39;;;;;;;4.05;1.90;;;16.80;50.80;;;;;;5119310;28;20177;-59
2023/02/01 04:34:04;;;;;;;3.67;1.90;;;16.80;50.80;;;;;;5119093;28;20201;-59
2023/02/01 04:36:30;;;;;;;3.65;2.00;;;16.80;50.80;;;;;;5119557;28;20173;-59
2023/02/01 04:38:55;;;;;;;4.05;2.10;;;16.80;50.80;;;;;;5119013;28;20175;-60
2023/02/01 04:41:22;;;;;;;3.10;1.42;;;16.80;50.90;;;;;;5119391;28;20252;-59
2023/02/01 04:43:48;;;;;;;4.63;1.90;;;16.80;50.90;;;;;;5119462;28;20663;-59
2023/02/01 04:46:14;;;;;;;3.30;1.75;;;16.70;50.80;;;;;;5118730;28;20173;-59
2023/02/01 04:48:40;;;;;;;4.60;2.20;;;16.80;50.80;;;;;;5119447;28;20260;-59
2023/02/01 04:51:05;;;;;;;3.25;1.88;;;16.70;50.90;;;;;;5115795;28;20173;-59
2023/02/01 04:53:31;;;;;;;4.68;2.10;;;16.70;50.90;;;;;;5115360;28;20213;-59
2023/02/01 04:55:56;;;;;;;4.03;2.15;;;16.70;50.90;;;;;;5116435;28;20179;-59
2023/02/01 04:58:22;;;;;;;7.32;2.40;;;16.70;50.90;;;;;;5115855;28;20177;-58
2023/02/01 05:00:47;;;;;;;4.35;1.95;;;16.70;50.90;;;;;;5115341;28;20173;-59
2023/02/01 05:03:13;;;;;;;3.67;1.85;;;16.70;50.90;;;;;;5116219;28;20212;-59
2023/02/01 05:05:38;;;;;;;3.20;1.77;;;16.70;50.90;;;;;;5115700;28;20225;-59
2023/02/01 05:08:04;;;;;;;3.47;1.85;;;16.70;50.80;;;;;;5115504;28;20181;-59
2023/02/01 05:10:29;;;;;;;3.40;1.83;;;16.70;50.90;;;;;;5115687;28;20180;-59
2023/02/01 05:15:39;;;;;;;5.88;2.15;;;16.60;50.80;;;;;;5114876;28;20156;-59
2023/02/01 05:18:05;;;;;;;3.30;1.90;;;16.70;51.00;;;;;;5115593;28;20577;-59
2023/02/01 05:20:30;;;;;;;4.95;2.03;;;16.70;51.00;;;;;;5115503;28;20176;-59
2023/02/01 05:22:56;;;;;;;4.18;2.45;;;16.70;51.00;;;;;;5115063;28;20169;-59
2023/02/01 05:25:21;;;;;;;3.15;1.70;;;16.60;50.90;;;;;;5115325;28;20261;-58
2023/02/01 05:27:47;;;;;;;4.75;2.17;;;16.60;50.90;;;;;;5115606;28;20264;-59
2023/02/01 05:30:13;;;;;;;5.05;2.00;;;16.70;51.00;;;;;;5114749;28;20252;-58
2023/02/01 05:32:38;;;;;;;4.80;2.05;;;16.60;51.00;;;;;;5115236;28;20193;-59
2023/02/01 05:35:04;;;;;;;4.95;1.88;;;16.60;50.90;;;;;;5114610;28;20628;-58
2023/02/01 05:37:30;;;;;;;3.92;2.17;;;16.60;51.00;;;;;;5115139;28;20177;-59
2023/02/01 05:39:55;;;;;;;4.75;2.42;;;16.60;50.90;;;;;;5115502;28;20216;-59
2023/02/01 05:42:21;;;;;;;4.85;2.20;;;16.60;50.90;;;;;;5114350;28;20700;-59
2023/02/01 05:44:46;;;;;;;7.13;2.40;;;16.60;50.90;;;;;;5115125;28;20255;-59
2023/02/01 05:47:12;;;;;;;4.55;2.00;;;16.60;50.90;;;;;;5115403;28;20179;-59
2023/02/01 05:49:38;;;;;;;5.28;1.98;;;16.60;51.00;;;;;;5114237;28;20591;-59
2023/02/01 05:52:03;;;;;;;4.47;2.10;;;16.60;50.90;;;;;;5115087;28;20616;-58
2023/02/01 05:54:29;;;;;;;3.40;1.90;;;16.60;50.80;;;;;;5114691;28;20641;-58
2023/02/01 05:56:54;;;;;;;4.07;2.00;;;16.50;50.80;;;;;;5114333;28;20194;-58
2023/02/01 05:59:20;;;;;;;5.88;2.53;;;16.50;50.80;;;;;;5114822;28;20173;-59
2023/02/01 06:01:45;;;;;;;4.53;2.10;;;16.50;51.50;;;;;;5114760;28;20218;-59
2023/02/01 06:04:11;;;;;;;4.07;1.90;;;16.50;50.90;;;;;;5114382;28;20165;-59
2023/02/01 06:06:36;;;;;;;5.63;2.22;;;16.50;51.00;;;;;;5114689;28;20309;-59
2023/02/01 06:09:03;;;;;;;4.45;1.65;;;16.50;50.90;;;;;;5115029;28;20247;-59
2023/02/01 06:11:28;;;;;;;5.28;1.90;;;16.50;50.90;;;;;;5113811;28;20184;-59
2023/02/01 06:13:55;;;;;;;3.30;1.80;;;16.50;50.90;;;;;;5114768;28;20208;-58
2023/02/01 06:16:21;;;;;;;6.07;2.20;;;16.50;51.00;;;;;;5114487;28;20177;-59
2023/02/01 06:18:46;;;;;;;4.25;1.90;;;16.50;50.90;;;;;;5113796;28;20335;-58
2023/02/01 06:21:14;;;;;;;4.22;1.85;;;16.50;50.90;;;;;;5114788;28;20276;-59
2023/02/01 06:23:39;;;;;;;5.53;2.08;;;16.50;50.90;;;;;;5114435;28;20185;-59
2023/02/01 06:26:07;;;;;;;4.22;2.40;;;16.50;51.00;;;;;;5113825;28;20173;-59
2023/02/01 06:28:33;;;;;;;5.07;2.22;;;16.50;51.00;;;;;;5114184;28;20181;-59
2023/02/01 06:31:02;;;;;;;5.25;2.28;;;16.40;50.90;;;;;;5114339;28;20165;-59
2023/02/01 06:33:27;;;;;;;3.72;1.98;;;16.40;50.90;;;;;;5095607;28;20717;-59
2023/02/01 06:35:58;;;;;;;5.95;2.17;;;16.40;50.90;;;;;;5114190;28;20169;-59
2023/02/01 06:38:24;;;;;;;6.28;2.28;;;16.40;51.00;;;;;;5113254;28;20593;-59
2023/02/01 06:40:56;;;;;;;3.78;2.00;;;16.50;51.00;;;;;;5114101;28;20179;-59
2023/02/01 06:43:25;;;;;;;4.45;2.03;;;16.40;50.90;;;;;;5113987;28;20241;-59
2023/02/01 06:45:51;;;;;;;5.32;1.92;;;16.40;50.90;;;;;;5113512;28;20200;-59
2023/02/01 06:48:17;;;;;;;5.85;2.33;;;16.40;50.90;;;;;;5114196;28;20212;-59
2023/02/01 06:50:42;;;;;;;6.80;2.88;;;16.40;50.90;;;;;;5114117;28;20172;-59
2023/02/01 06:53:08;;;;;;;4.65;2.53;;;16.40;50.90;;;;;;5113401;28;20209;-59
2023/02/01 06:55:33;;;;;;;5.38;2.33;;;16.40;50.90;;;;;;5113538;28;20181;-59
2023/02/01 06:57:59;;;;;;;4.00;2.05;;;16.40;50.90;;;;;;5114095;28;20169;-59
2023/02/01 07:00:24;;;;;;;6.05;2.20;;;16.40;50.90;;;;;;5112926;28;20162;-59
2023/02/01 07:02:50;;;;;;;5.47;2.22;;;16.40;50.90;;;;;;5114170;28;20628;-59
2023/02/01 07:05:16;;;;;;;3.72;2.00;;;16.40;50.80;;;;;;5113695;28;20651;-59
2023/02/01 07:07:41;;;;;;;4.30;2.00;;;16.40;50.80;;;;;;5113073;28;20175;-59
2023/02/01 07:10:07;;;;;;;3.10;1.65;;;16.50;50.80;;;;;;5113773;28;20173;-58
2023/02/01 07:12:33;;;;;;;3.85;2.30;;;16.50;50.80;;;;;;5112960;28;20299;-59
2023/02/01 07:14:58;;;;;;;5.28;2.20;;;16.50;50.80;;;;;;5112142;28;20177;-59
2023/02/01 07:17:24;;;;;;;5.03;1.98;;;16.50;50.80;;;;;;5112964;28;20165;-58
2023/02/01 07:19:49;;;;;;;3.90;2.10;;;16.50;50.80;;;;;;5113647;28;20188;-59
2023/02/01 07:22:18;;;;;;;4.10;1.90;;;16.60;50.80;;;;;;5112826;28;20622;-58
2023/02/01 07:24:43;;;;;;;5.28;2.30;;;16.50;50.90;;;;;;5113608;28;20177;-59
2023/02/01 07:27:09;;;;;;;8.43;2.35;;;16.50;50.90;;;;;;5113326;28;20263;-58
2023/02/01 07:29:34;;;;;;;4.65;2.00;;;16.50;50.90;;;;;;5112362;28;20171;-59
2023/02/01 07:32:02;;;;;;;3.00;1.92;;;16.50;50.90;;;;;;5113492;28;20264;-59
2023/02/01 07:34:27;;;;;;;5.03;2.45;;;16.50;51.00;;;;;;5113081;28;20624;-59
2023/02/01 07:36:53;;;;;;;3.80;2.20;;;16.40;50.90;;;;;;5112708;28;20611;-59
2023/02/01 07:39:18;;;;;;;4.88;2.20;;;16.50;51.00;;;;;;5113012;28;20176;-59
2023/02/01 07:41:45;;;;;;;4.70;2.28;;;16.50;51.00;;;;;;5112760;28;20171;-59
2023/02/01 07:44:10;;;;;;;5.25;2.05;;;16.40;50.90;;;;;;5113446;28;20168;-74
2023/02/01 07:46:36;;;;;;;5.88;2.28;;;16.40;50.90;;;;;;5113043;28;20659;-68
2023/02/01 07:49:01;;;;;;;7.13;2.03;;;16.40;51.50;;;;;;5112693;28;20691;-70
2023/02/01 07:51:27;;;;;;;3.20;2.22;;;16.40;51.00;;;;;;5112911;28;20184;-68
2023/02/01 07:53:52;;;;;;;6.45;2.42;;;16.40;51.20;;;;;;5112931;28;20207;-66
2023/02/01 07:56:19;;;;;;;7.50;2.58;;;16.40;51.10;;;;;;5112388;28;20173;-67
2023/02/01 07:58:48;;;;;;;6.90;2.40;;;16.40;51.10;;;;;;5113282;28;20249;-67
2023/02/01 08:01:23;;;;;;;6.47;2.25;;;16.50;51.30;;;;;;5113189;28;20193;-69
2023/02/01 08:03:51;;;;;;;4.43;2.00;;;16.40;51.00;;;;;;5112430;28;20169;-69
2023/02/01 08:06:17;;;;;;;4.10;1.83;;;16.40;51.10;;;;;;5112703;28;20207;-68
2023/02/01 08:08:44;;;;;;;7.93;2.47;;;16.40;51.10;;;;;;5113207;28;20223;-69
2023/02/01 08:11:10;;;;;;;4.32;2.00;;;16.40;51.10;;;;;;5112295;28;20230;-71
2023/02/01 08:13:36;;;;;;;6.60;2.25;;;16.40;51.00;;;;;;5112776;28;20244;-67
2023/02/01 08:16:05;;;;;;;5.10;2.28;;;16.40;51.00;;;;;;5112980;28;20165;-69
2023/02/01 08:18:31;;;;;;;4.32;2.15;;;16.50;51.10;;;;;;5111667;28;20221;-67
2023/02/01 08:20:57;;;;;;;7.57;2.58;;;16.50;51.00;;;;;;5112957;28;20548;-69
2023/02/01 08:23:23;;;;;;;3.40;2.03;;;16.50;51.10;;;;;;5094274;28;20170;-69
2023/02/01 08:25:48;;;;;;;6.43;2.10;;;16.60;51.00;;;;;;5096674;28;20647;-64
2023/02/01 08:28:14;;;;;;;5.75;2.50;;;16.50;50.80;;;;;;5116869;28;20251;-66
2023/02/01 08:30:41;;;;;;;4.78;2.00;;;16.60;50.80;;;;;;5116458;28;20571;-65
2023/02/01 08:33:07;;;;;;;6.43;2.35;;;16.60;50.90;;;;;;5115961;28;20242;-64
2023/02/01 08:35:34;;;;;;;7.22;2.47;;;16.60;50.90;;;;;;5116219;28;20173;-63
2023/02/01 08:38:00;;;;;;;6.05;1.98;;;16.60;50.90;;;;;;5115752;28;20548;-63
2023/02/01 08:40:25;;;;;;;6.10;2.10;;;16.60;50.90;;;;;;5116180;28;20218;-70
2023/02/01 08:42:51;;;;;;;7.18;2.33;;;16.70;51.10;;;;;;5116363;28;20259;-69
2023/02/01 08:45:24;;;;;;;3.55;1.92;;;16.70;51.00;;;;;;5115622;28;20264;-72
2023/02/01 08:47:53;;;;;;;5.38;2.22;;;16.70;51.20;;;;;;5116377;28;20679;-64
2023/02/01 08:50:19;;;;;;;4.35;2.05;;;16.70;51.10;;;;;;5116192;28;20195;-64
2023/02/01 08:52:45;;;;;;;4.93;1.67;;;16.80;51.10;;;;;;5115625;28;20687;-65
2023/02/01 08:55:10;;;;;;;4.28;1.98;;;16.80;51.10;;;;;;5116441;28;20173;-64
2023/02/01 08:57:36;;;;;;;5.28;2.10;;;16.80;51.10;;;;;;5116096;28;20250;-64
2023/02/01 09:00:03;;;;;;;7.60;2.28;;;16.80;51.00;;;;;;5115183;28;20181;-63
2023/02/01 09:02:28;;;;;;;5.28;2.25;;;16.90;51.10;;;;;;5115400;28;20356;-64
2023/02/01 09:04:55;;;;;;;5.05;2.30;;;16.90;51.00;;;;;;5115850;28;20655;-65
2023/02/01 09:07:20;;;;;;;4.55;2.40;;;16.90;50.90;;;;;;5096610;28;20239;-65
2023/02/01 09:09:46;;;;;;;6.80;2.28;;;17.00;50.70;;;;;;5115785;28;20177;-64
2023/02/01 09:12:11;;;;;;;4.68;1.65;;;17.00;50.80;;;;;;5115944;28;20165;-65
2023/02/01 09:14:37;;;;;;;5.50;2.20;;;17.00;50.80;;;;;;5114900;28;20255;-63
2023/02/01 09:17:03;;;;;;;3.83;2.00;;;17.00;50.80;;;;;;5115938;28;20169;-63
2023/02/01 09:19:28;;;;;;;5.15;1.73;;;17.00;50.90;;;;;;5115306;28;20316;-68
2023/02/01 09:21:54;;;;;;;7.13;2.60;;;17.00;51.10;;;;;;5115118;28;20175;-65
2023/02/01 09:24:19;;;;;;;5.75;2.20;;;17.00;51.00;;;;;;5115937;28;20220;-66
2023/02/01 09:26:45;;;;;;;10.23;2.25;;;17.00;51.10;;;;;;5115681;28;20213;-65
2023/02/01 09:29:10;;;;;;;8.70;2.50;;;17.00;51.10;;;;;;5114806;28;20176;-64
2023/02/01 09:31:36;;;;;;;5.63;1.90;;;17.00;51.10;;;;;;5114924;28;20595;-66
2023/02/01 09:34:02;;;;;;;5.95;2.28;;;17.00;51.10;;;;;;5115332;28;20655;-65
2023/02/01 09:36:28;;;;;;;4.35;2.03;;;17.00;51.10;;;;;;5113921;28;20180;-69
2023/02/01 09:38:53;;;;;;;5.05;2.05;;;16.90;51.90;;;;;;5115544;28;20176;-69
2023/02/01 09:41:49;;;;;;;4.95;1.80;;;16.90;51.30;;;;;;5114383;28;20655;-67
2023/02/01 09:44:31;;;;;;;5.10;2.00;;;16.90;51.50;;;;;;5096824;28;20700;-67
2023/02/01 09:46:57;;;;;;;4.70;2.05;;;16.90;51.60;;;;;;5115443;28;20184;-67
2023/02/01 09:49:32;;;;;;;5.47;2.13;;;16.90;51.60;;;;;;5114307;28;20173;-66
2023/02/01 09:51:57;;;;;;;6.80;2.35;;;16.90;51.50;;;;;;5115195;28;20182;-68
2023/02/01 09:54:29;;;;;;;5.35;2.55;;;16.90;51.40;;;;;;5096562;28;20221;-67
2023/02/01 09:57:01;;;;;;;5.32;2.50;;;16.80;51.30;;;;;;5097105;28;20173;-68
2023/02/01 09:59:30;;;;;;;7.65;2.33;;;16.80;51.40;;;;;;5080540;28;20184;-68
2023/02/01 10:01:56;;;;;;;4.13;2.10;;;16.80;51.40;;;;;;5114768;28;20518;-65
2023/02/01 10:04:22;;;;;;;4.28;1.63;;;16.80;51.40;;;;;;5114019;28;20165;-69
2023/02/01 10:07:17;;;;;;;5.38;2.22;;;16.80;51.50;;;;;;5114825;28;20191;-69
2023/02/01 10:10:01;;;;;;;5.10;2.17;;;16.70;51.50;;;;;;5098330;28;20169;-68
2023/02/01 10:13:06;;;;;;;6.47;2.50;;;16.70;51.50;;;;;;5096716;28;20238;-71
2023/02/01 10:16:08;;;;;;;5.30;2.53;;;16.70;51.60;;;;;;5114192;28;20255;-70
2023/02/01 10:18:55;;;;;;;5.53;2.63;;;16.70;51.60;;;;;;5113586;28;20220;-68
2023/02/01 10:21:58;;;;;;;7.25;2.75;;;16.70;51.60;;;;;;5114512;28;20538;-67
2023/02/01 10:24:33;;;;;;;7.57;2.53;;;16.70;51.60;;;;;;5095602;28;20247;-69
2023/02/01 10:27:19;;;;;;;6.43;2.47;;;16.70;51.60;;;;;;5114690;28;20169;-74
2023/02/01 10:29:56;;;;;;;5.65;2.55;;;16.70;51.70;;;;;;5096250;28;20231;-69
2023/02/01 10:32:24;;;;;;;7.53;2.00;;;16.70;51.60;;;;;;5097021;28;20248;-70
2023/02/01 10:34:59;;;;;;;6.57;2.30;;;16.70;51.90;;;;;;5096234;28;20285;-68
2023/02/01 10:37:27;;;;;;;4.45;2.28;;;16.60;51.70;;;;;;5114100;28;20173;-70
2023/02/01 10:39:57;;;;;;;5.22;2.17;;;16.60;51.60;;;;;;5114039;28;20181;-69
2023/02/01 10:42:27;;;;;;;6.22;2.40;;;16.60;51.80;;;;;;5113772;28;20172;-69
2023/02/01 10:44:52;;;;;;;4.38;1.83;;;16.60;51.60;;;;;;5113541;28;20181;-66
2023/02/01 10:47:18;;;;;;;5.25;2.45;;;16.60;51.80;;;;;;5095693;28;20244;-70
2023/02/01 10:50:15;;;;;;;6.55;2.13;;;16.60;51.80;;;;;;5112988;28;20600;-68
2023/02/01 10:52:47;;;;;;;6.55;2.30;;;16.60;52.00;;;;;;5112647;28;20620;-70
2023/02/01 10:55:35;;;;;;;7.60;2.20;;;16.60;52.00;;;;;;5096367;28;20697;-68
2023/02/01 10:58:02;;;;;;;6.68;2.30;;;16.70;51.90;;;;;;5096325;28;20184;-68
2023/02/01 11:00:28;;;;;;;5.65;2.38;;;16.70;52.00;;;;;;5112904;28;20179;-70
2023/02/01 11:02:54;;;;;;;4.88;2.10;;;16.70;51.90;;;;;;5113709;28;20591;-71
2023/02/01 11:05:22;;;;;;;4.93;2.40;;;16.70;51.90;;;;;;5095240;28;20169;-70
2023/02/01 11:07:54;;;;;;;4.55;2.10;;;16.70;51.90;;;;;;5112923;28;20184;-71
2023/02/01 11:10:41;;;;;;;5.28;2.20;;;16.60;52.40;;;;;;5113648;28;20173;-69
2023/02/01 11:13:17;;;;;;;5.30;2.40;;;16.60;52.60;;;;;;5112894;28;20201;-71
2023/02/01 11:15:44;;;;;;;5.13;2.30;;;16.50;52.80;;;;;;5113446;28;20169;-70
2023/02/01 11:18:18;;;;;;;7.65;2.45;;;16.50;53.00;;;;;;5113244;28;20686;-69
2023/02/01 11:20:44;;;;;;;5.57;2.95;;;16.50;52.60;;;;;;5113055;28;20222;-70
2023/02/01 11:23:20;;;;;;;4.63;1.80;;;16.60;52.60;;;;;;5095547;28;20177;-67
2023/02/01 11:26:10;;;;;;;5.22;2.15;;;16.60;52.40;;;;;;5095891;28;20179;-68
2023/02/01 11:28:38;;;;;;;6.25;2.30;;;16.60;52.40;;;;;;5099991;28;20268;-70
2023/02/01 11:31:05;;;;;;;3.50;2.00;;;16.70;52.40;;;;;;5095034;28;20658;-69
2023/02/01 11:33:34;;;;;;;4.38;2.03;;;16.70;52.30;;;;;;5094895;28;20659;-68
2023/02/01 11:36:13;;;;;;;4.38;2.10;;;16.80;52.30;;;;;;5094821;28;20681;-70
2023/02/01 11:38:39;;;;;;;4.60;2.00;;;16.80;52.20;;;;;;5079870;28;20185;-67
2023/02/01 11:41:20;;;;;;;7.15;1.88;;;16.90;52.10;;;;;;5077702;28;20876;-67
2023/02/01 11:43:56;;;;;;;7.15;1.70;;;16.90;52.00;;;;;;5113401;28;20173;-68
2023/02/01 11:46:30;;;;;;;7.88;2.13;;;17.00;51.90;;;;;;5113120;28;20172;-71
2023/02/01 11:48:56;;;;;;;4.05;2.03;;;17.00;51.90;;;;;;5112631;28;20177;-66
2023/02/01 11:51:37;;;;;;;4.88;1.90;;;16.90;51.80;;;;;;5112852;28;20257;-64
2023/02/01 11:54:18;;;;;;;5.47;2.40;;;17.00;51.80;;;;;;5095061;28;20564;-64
2023/02/01 11:56:44;;;;;;;6.63;2.20;;;17.00;51.80;;;;;;5112493;28;20169;-65
2023/02/01 11:59:12;;;;;;;7.25;2.28;;;17.00;51.80;;;;;;5113292;28;20176;-65
2023/02/01 12:02:02;;;;;;;4.93;1.90;;;17.00;51.90;;;;;;5098788;28;20173;-65
2023/02/01 12:04:45;;;;;;;6.93;2.05;;;17.00;51.90;;;;;;5117128;28;20169;-66
2023/02/01 12:07:21;;;;;;;6.38;2.17;;;17.00;51.90;;;;;;5082935;28;20630;-66
2023/02/01 12:10:04;;;;;;;7.72;1.83;;;17.00;51.90;;;;;;5081764;28;20177;-64
2023/02/01 12:12:45;;;;;;;5.38;1.77;;;17.00;51.70;;;;;;5116704;28;20180;-68
2023/02/01 12:15:47;;;;;;;6.15;2.40;;;17.00;51.80;;;;;;5082425;28;20647;-67
2023/02/01 12:18:46;;;;;;;4.18;2.15;;;17.10;51.80;;;;;;5064449;28;20216;-67
2023/02/01 12:21:40;;;;;;;5.55;1.92;;;17.10;51.70;;;;;;5115647;28;20181;-66
2023/02/01 12:24:40;;;;;;;6.22;2.17;;;17.00;51.60;;;;;;5082398;28;20237;-68
2023/02/01 12:27:23;;;;;;;4.88;2.05;;;16.90;51.60;;;;;;5097113;28;20620;-68
2023/02/01 12:29:58;;;;;;;7.13;2.42;;;16.90;51.70;;;;;;5098266;28;20522;-67
2023/02/01 12:33:00;;;;;;;6.15;2.38;;;16.90;51.70;;;;;;5097668;28;20181;-68
2023/02/01 12:35:35;;;;;;;6.93;2.35;;;16.90;51.60;;;;;;5098146;28;20177;-68
2023/02/01 12:38:13;;;;;;;4.35;2.00;;;17.00;51.60;;;;;;5115996;28;20207;-67
2023/02/01 12:40:39;;;;;;;6.43;1.90;;;16.90;51.60;;;;;;5098856;28;20230;-69
2023/02/01 12:43:15;;;;;;;3.45;1.90;;;16.90;51.50;;;;;;5116547;28;20169;-67
2023/02/01 12:45:46;;;;;;;4.95;1.90;;;16.90;51.50;;;;;;5082076;28;20181;-67
2023/02/01 12:48:34;;;;;;;4.43;1.52;;;16.80;51.50;;;;;;5082200;28;20200;-67
2023/02/01 12:51:06;;;;;;;4.00;1.85;;;16.80;51.50;;;;;;5098253;28;20196;-67
2023/02/01 12:53:47;;;;;;;6.00;2.08;;;16.80;51.50;;;;;;5081358;28;20205;-67
2023/02/01 12:56:28;;;;;;;5.57;1.92;;;16.80;51.50;;;;;;5098276;28;20544;-68
2023/02/01 12:58:55;;;;;;;5.50;2.10;;;16.80;51.50;;;;;;5081319;28;20169;-67
2023/02/01 13:01:30;;;;;;;4.85;1.95;;;16.80;51.50;;;;;;5080988;28;20201;-67
2023/02/01 13:04:14;;;;;;;4.55;2.03;;;16.80;51.50;;;;;;5116134;28;20183;-69
2023/02/01 13:07:04;;;;;;;4.90;1.95;;;16.80;51.50;;;;;;5115036;28;20196;-67
2023/02/01 13:09:41;;;;;;;3.08;1.70;;;16.80;51.50;;;;;;5115849;28;20177;-67
2023/02/01 13:12:14;;;;;;;6.88;2.53;;;16.80;51.50;;;;;;5097003;28;20255;-68
2023/02/01 13:14:51;;;;;;;5.20;2.15;;;16.70;51.40;;;;;;5080955;28;20228;-67
2023/02/01 13:17:26;;;;;;;5.22;2.47;;;16.70;51.50;;;;;;5081920;28;20221;-67
2023/02/01 13:20:00;;;;;;;4.53;1.75;;;16.70;51.50;;;;;;5081403;28;20173;-67
2023/02/01 13:22:57;;;;;;;5.50;2.20;;;16.70;51.50;;;;;;5081629;28;20173;-67
2023/02/01 13:25:47;;;;;;;4.65;2.28;;;16.70;51.50;;;;;;5093221;28;20703;-66